createdAt,value
2019-02-14T00:01:44.655Z,92.70
2019-02-14T00:04:15.292Z,92.70
2019-02-14T00:06:46.123Z,92.70
2019-02-14T00:09:16.679Z,92.90
2019-02-14T00:11:47.236Z,92.90
2019-02-14T00:14:17.764Z,92.80
2019-02-14T00:16:48.251Z,92.90
2019-02-14T00:19:18.836Z,92.90
2019-02-14T00:21:49.462Z,93.10
2019-02-14T00:24:20.019Z,93.00
2019-02-14T00:26:50.604Z,93.00
2019-02-14T00:29:21.549Z,92.90
2019-02-14T00:31:52.191Z,92.90
2019-02-14T00:34:22.796Z,92.90
2019-02-14T00:36:53.487Z,92.90
2019-02-14T00:39:24.163Z,93.00
2019-02-14T00:41:54.705Z,93.00
2019-02-14T00:44:25.290Z,92.90
2019-02-14T00:46:56.117Z,92.80
2019-02-14T00:49:26.743Z,92.90
2019-02-14T00:51:57.452Z,92.80
2019-02-14T00:54:27.970Z,92.80
2019-02-14T00:56:58.570Z,92.80
2019-02-14T00:59:29.173Z,92.90
2019-02-14T01:02:00.015Z,92.90
2019-02-14T01:04:30.507Z,93.00
2019-02-14T01:07:01.122Z,92.80
2019-02-14T01:09:31.862Z,92.80
2019-02-14T01:12:02.540Z,92.80
2019-02-14T01:14:33.094Z,92.90
2019-02-14T01:17:03.684Z,92.90
2019-02-14T01:19:34.321Z,92.90
2019-02-14T01:22:05.165Z,93.10
2019-02-14T01:24:35.807Z,93.00
2019-02-14T01:27:07.438Z,92.90
2019-02-14T01:29:38.017Z,93.10
2019-02-14T01:32:08.863Z,93.20
2019-02-14T01:34:39.537Z,93.20
2019-02-14T01:37:10.088Z,93.30
2019-02-14T01:39:41.415Z,93.20
2019-02-14T01:42:11.949Z,93.20
2019-02-14T01:44:42.972Z,93.20
2019-02-14T01:47:13.454Z,93.10
2019-02-14T01:49:43.947Z,93.20
2019-02-14T01:52:14.683Z,93.20
2019-02-14T01:54:46.558Z,93.10
2019-02-14T01:57:16.978Z,93.00
2019-02-14T01:59:47.532Z,93.10
2019-02-14T02:02:18.110Z,93.10
2019-02-14T02:04:48.758Z,93.00
2019-02-14T02:07:19.242Z,93.00
2019-02-14T02:09:50.062Z,92.90
2019-02-14T02:12:20.660Z,92.90
2019-02-14T02:14:51.201Z,92.90
2019-02-14T02:17:21.814Z,92.80
2019-02-14T02:19:52.453Z,92.70
2019-02-14T02:22:23.272Z,92.70
2019-02-14T02:24:53.919Z,92.80
2019-02-14T02:27:24.654Z,92.70
2019-02-14T02:29:55.293Z,92.80
2019-02-14T02:32:26.014Z,92.70
2019-02-14T02:34:56.744Z,92.80
2019-02-14T02:37:27.392Z,92.90
2019-02-14T02:39:58.116Z,92.80
2019-02-14T02:42:28.712Z,92.80
2019-02-14T02:44:59.239Z,92.70
2019-02-14T02:47:29.975Z,92.70
2019-02-14T02:50:00.608Z,92.80
2019-02-14T02:52:31.259Z,92.70
2019-02-14T02:55:01.770Z,92.60
2019-02-14T02:57:32.836Z,92.60
2019-02-14T03:00:08.525Z,92.70
2019-02-14T03:02:39.426Z,92.60
2019-02-14T03:05:11.491Z,92.60
2019-02-14T03:07:42.159Z,92.70
2019-02-14T03:10:13.311Z,92.70
2019-02-14T03:12:43.949Z,92.60
2019-02-14T03:15:14.639Z,92.70
2019-02-14T03:17:45.266Z,92.60
2019-02-14T03:20:15.884Z,92.70
2019-02-14T03:22:46.434Z,92.70
2019-02-14T03:25:18.482Z,92.60
2019-02-14T03:27:49.122Z,92.60
2019-02-14T03:30:19.640Z,92.60
2019-02-14T03:32:50.387Z,92.50
2019-02-14T03:35:20.920Z,92.60
2019-02-14T03:37:51.493Z,92.50
2019-02-14T03:40:22.089Z,92.50
2019-02-14T03:42:54.080Z,92.50
2019-02-14T03:45:24.780Z,92.40
2019-02-14T03:47:55.284Z,92.40
2019-02-14T03:50:26.022Z,92.40
2019-02-14T03:52:56.763Z,92.30
2019-02-14T03:55:27.348Z,92.40
2019-02-14T03:57:57.870Z,92.40
2019-02-14T04:00:28.728Z,92.20
2019-02-14T04:02:59.233Z,92.30
2019-02-14T04:05:29.817Z,92.20
2019-02-14T04:08:00.359Z,92.20
2019-02-14T04:10:30.994Z,92.30
2019-02-14T04:13:01.482Z,92.30
2019-02-14T04:15:32.037Z,92.20
2019-02-14T04:18:05.668Z,92.20
2019-02-14T04:20:36.164Z,92.20
2019-02-14T04:23:06.888Z,92.10
2019-02-14T04:25:37.417Z,92.00
2019-02-14T04:28:08.063Z,91.90
2019-02-14T04:30:38.563Z,91.80
2019-02-14T04:33:09.006Z,91.70
2019-02-14T04:35:39.569Z,91.60
2019-02-14T04:38:10.119Z,91.60
2019-02-14T04:40:40.526Z,91.30
2019-02-14T04:43:11.078Z,91.20
2019-02-14T04:45:41.652Z,91.20
2019-02-14T04:48:12.493Z,91.00
2019-02-14T04:50:43.126Z,91.10
2019-02-14T04:53:13.884Z,91.10
2019-02-14T04:55:44.409Z,91.30
2019-02-14T04:58:15.105Z,91.30
2019-02-14T05:00:45.642Z,91.40
2019-02-14T05:03:16.395Z,91.40
2019-02-14T05:05:47.095Z,91.50
2019-02-14T05:08:17.851Z,91.50
2019-02-14T05:10:51.453Z,91.60
2019-02-14T05:13:22.064Z,91.60
2019-02-14T05:15:52.536Z,91.60
2019-02-14T05:18:23.230Z,91.50
2019-02-14T05:20:53.983Z,91.20
2019-02-14T05:23:24.679Z,91.00
2019-02-14T05:25:55.235Z,91.00
2019-02-14T05:28:25.985Z,91.10
2019-02-14T05:30:56.908Z,91.10
2019-02-14T05:33:27.459Z,91.20
2019-02-14T05:35:58.002Z,91.30
2019-02-14T05:38:28.625Z,91.30
2019-02-14T05:40:59.447Z,91.20
2019-02-14T05:43:30.263Z,91.20
2019-02-14T05:46:00.895Z,91.00
2019-02-14T05:48:31.573Z,90.90
2019-02-14T05:51:02.268Z,91.00
2019-02-14T05:53:33.877Z,91.00
2019-02-14T05:56:04.561Z,91.10
2019-02-14T05:58:35.487Z,91.10
2019-02-14T06:01:06.255Z,91.00
2019-02-14T06:03:36.959Z,91.00
2019-02-14T06:06:07.573Z,91.00
2019-02-14T06:08:38.309Z,91.00
2019-02-14T06:11:09.095Z,91.00
2019-02-14T06:13:39.714Z,91.10
2019-02-14T06:16:10.545Z,91.10
2019-02-14T06:18:41.151Z,91.10
2019-02-14T06:21:11.783Z,91.10
2019-02-14T06:23:42.703Z,91.10
2019-02-14T06:26:14.248Z,91.00
2019-02-14T06:28:45.032Z,90.90
2019-02-14T06:31:15.631Z,90.80
2019-02-14T06:33:46.369Z,90.60
2019-02-14T06:36:17.155Z,90.40
2019-02-14T06:38:47.848Z,90.30
2019-02-14T06:41:18.552Z,90.00
2019-02-14T06:43:49.097Z,90.30
2019-02-14T06:46:19.704Z,90.30
2019-02-14T06:48:50.515Z,90.30
2019-02-14T06:51:21.155Z,90.10
2019-02-14T06:53:51.978Z,90.30
2019-02-14T06:56:22.515Z,90.40
2019-02-14T06:58:53.115Z,90.40
2019-02-14T07:01:24.760Z,90.10
2019-02-14T07:03:55.500Z,90.30
2019-02-14T07:06:26.241Z,90.20
2019-02-14T07:08:57.182Z,90.30
2019-02-14T07:11:27.835Z,90.20
2019-02-14T07:13:58.835Z,90.20
2019-02-14T07:16:29.615Z,90.30
2019-02-14T07:19:00.215Z,90.10
2019-02-14T07:21:30.681Z,90.00
2019-02-14T07:24:01.251Z,89.70
2019-02-14T07:26:32.085Z,89.60
2019-02-14T07:29:02.737Z,89.10
2019-02-14T07:31:34.372Z,89.40
2019-02-14T07:34:05.111Z,88.50
2019-02-14T07:36:35.868Z,88.70
2019-02-14T07:39:08.018Z,88.60
2019-02-14T07:41:38.770Z,89.00
2019-02-14T07:44:09.290Z,88.80
2019-02-14T07:46:40.034Z,89.30
2019-02-14T07:49:10.434Z,89.30
2019-02-14T07:51:41.190Z,89.50
2019-02-14T07:54:12.026Z,89.50
2019-02-14T07:56:42.802Z,88.90
2019-02-14T07:59:13.353Z,88.10
2019-02-14T08:01:44.034Z,87.60
2019-02-14T08:04:14.532Z,88.00
2019-02-14T08:06:45.264Z,88.10
2019-02-14T08:09:15.981Z,88.30
2019-02-14T08:11:46.635Z,87.80
2019-02-14T08:14:17.139Z,88.10
2019-02-14T08:16:47.801Z,87.40
2019-02-14T08:19:18.311Z,86.80
2019-02-14T08:21:49.060Z,86.90
2019-02-14T08:24:19.678Z,86.80
2019-02-14T08:26:50.535Z,87.20
2019-02-14T08:29:21.126Z,86.90
2019-02-14T08:31:51.984Z,86.70
2019-02-14T08:34:22.512Z,87.10
2019-02-14T08:36:53.231Z,87.50
2019-02-14T08:39:23.942Z,87.00
2019-02-14T08:41:54.620Z,86.80
2019-02-14T08:44:25.336Z,87.00
2019-02-14T08:46:55.817Z,87.70
2019-02-14T08:49:26.505Z,87.60
2019-02-14T08:51:57.050Z,87.10
2019-02-14T08:54:27.773Z,86.90
2019-02-14T08:56:58.400Z,86.10
2019-02-14T08:59:28.988Z,86.80
2019-02-14T09:01:59.727Z,87.10
2019-02-14T09:04:30.615Z,86.80
2019-02-14T09:07:01.250Z,86.10
2019-02-14T09:09:31.955Z,86.00
2019-02-14T09:12:02.712Z,84.60
2019-02-14T09:14:33.458Z,85.10
2019-02-14T09:17:04.290Z,85.60
2019-02-14T09:19:35.010Z,84.40
2019-02-14T09:22:05.665Z,84.00
2019-02-14T09:24:36.325Z,83.60
2019-02-14T09:27:07.245Z,85.30
2019-02-14T09:29:37.951Z,85.10
2019-02-14T09:32:08.626Z,85.30
2019-02-14T09:34:39.164Z,85.50
2019-02-14T09:37:09.706Z,84.90
2019-02-14T09:39:41.100Z,85.00
2019-02-14T09:42:11.913Z,84.20
2019-02-14T09:44:42.619Z,84.20
2019-02-14T09:47:13.226Z,84.60
2019-02-14T09:49:43.917Z,84.20
2019-02-14T09:52:14.524Z,83.00
2019-02-14T09:54:45.285Z,82.20
2019-02-14T09:57:15.920Z,82.40
2019-02-14T09:59:46.596Z,83.50
2019-02-14T10:02:17.172Z,82.30
2019-02-14T10:04:47.796Z,81.80
2019-02-14T10:07:18.668Z,82.20
2019-02-14T10:09:49.367Z,80.40
2019-02-14T10:12:19.980Z,81.00
2019-02-14T10:14:50.773Z,80.80
2019-02-14T10:17:22.458Z,81.20
2019-02-14T10:19:53.545Z,80.00
2019-02-14T10:22:24.280Z,79.70
2019-02-14T10:24:54.818Z,79.20
2019-02-14T10:27:25.426Z,80.00
2019-02-14T10:29:56.066Z,80.70
2019-02-14T10:32:26.770Z,79.40
2019-02-14T10:34:57.329Z,79.30
2019-02-14T10:37:28.021Z,80.10
2019-02-14T10:39:58.741Z,78.80
2019-02-14T10:42:29.318Z,77.10
2019-02-14T10:44:59.985Z,77.90
2019-02-14T10:47:30.521Z,77.50
2019-02-14T10:50:01.042Z,77.60
2019-02-14T10:52:31.738Z,77.30
2019-02-14T10:55:02.402Z,76.90
2019-02-14T10:57:32.861Z,76.70
2019-02-14T11:00:04.323Z,75.90
2019-02-14T11:02:36.743Z,74.70
2019-02-14T11:05:07.482Z,76.80
2019-02-14T11:07:38.105Z,76.00
2019-02-14T11:10:09.243Z,76.40
2019-02-14T11:12:41.005Z,74.50
2019-02-14T11:15:13.034Z,73.60
2019-02-14T11:17:43.665Z,72.80
2019-02-14T11:20:14.677Z,73.50
2019-02-14T11:22:45.364Z,74.20
2019-02-14T11:25:19.092Z,74.40
2019-02-14T11:27:49.637Z,73.60
2019-02-14T11:30:20.264Z,74.10
2019-02-14T11:32:50.975Z,74.40
2019-02-14T11:35:21.915Z,74.50
2019-02-14T11:37:52.549Z,74.30
2019-02-14T11:40:23.358Z,75.50
2019-02-14T11:42:54.130Z,75.50
2019-02-14T11:45:25.039Z,74.80
2019-02-14T11:47:55.600Z,74.50
2019-02-14T11:50:26.275Z,74.40
2019-02-14T11:52:57.155Z,74.00
2019-02-14T11:55:27.866Z,75.10
2019-02-14T11:57:58.508Z,76.30
2019-02-14T12:00:29.332Z,76.60
2019-02-14T12:02:59.951Z,75.10
2019-02-14T12:05:30.705Z,74.80
2019-02-14T12:08:01.306Z,74.30
2019-02-14T12:10:31.896Z,74.30
2019-02-14T12:13:02.529Z,74.40
2019-02-14T12:15:33.294Z,72.00
2019-02-14T12:18:04.082Z,72.20
2019-02-14T12:20:35.113Z,72.80
2019-02-14T12:23:05.972Z,71.80
2019-02-14T12:25:36.664Z,72.30
2019-02-14T12:28:07.270Z,71.40
2019-02-14T12:30:38.006Z,72.20
2019-02-14T12:33:08.672Z,73.10
2019-02-14T12:35:40.463Z,72.00
2019-02-14T12:38:12.305Z,72.20
2019-02-14T12:40:42.930Z,73.40
2019-02-14T12:43:13.651Z,72.30
2019-02-14T12:45:44.380Z,71.00
2019-02-14T12:48:15.067Z,70.40
2019-02-14T12:50:45.663Z,70.40
2019-02-14T12:53:16.370Z,69.80
2019-02-14T12:55:47.796Z,69.20
2019-02-14T12:58:18.903Z,67.80
2019-02-14T13:00:49.452Z,67.30
2019-02-14T13:03:20.082Z,65.30
2019-02-14T13:05:50.764Z,66.00
2019-02-14T13:08:22.629Z,65.80
2019-02-14T13:10:53.305Z,65.30
2019-02-14T13:13:24.044Z,68.10
2019-02-14T13:15:54.646Z,67.20
2019-02-14T13:18:25.304Z,66.60
2019-02-14T13:20:57.115Z,66.10
2019-02-14T13:23:27.704Z,66.60
2019-02-14T13:25:58.344Z,67.10
2019-02-14T13:28:29.210Z,68.20
2019-02-14T13:31:00.066Z,68.30
2019-02-14T13:33:30.804Z,68.70
2019-02-14T13:36:01.343Z,69.90
2019-02-14T13:38:31.783Z,69.30
2019-02-14T13:41:02.303Z,68.50
2019-02-14T13:43:33.083Z,67.20
2019-02-14T13:46:03.850Z,67.80
2019-02-14T13:48:34.590Z,68.80
2019-02-14T13:51:05.307Z,70.60
2019-02-14T13:53:36.863Z,71.00
2019-02-14T13:56:07.463Z,71.20
2019-02-14T13:58:38.065Z,71.50
2019-02-14T14:01:08.848Z,72.10
2019-02-14T14:03:39.422Z,72.10
2019-02-14T14:06:10.012Z,72.20
2019-02-14T14:08:41.557Z,71.80
2019-02-14T14:11:12.207Z,72.10
2019-02-14T14:13:43.656Z,72.70
2019-02-14T14:16:14.276Z,71.60
2019-02-14T14:18:44.817Z,72.80
2019-02-14T14:21:15.690Z,73.60
2019-02-14T14:23:46.205Z,74.30
2019-02-14T14:26:16.923Z,73.90
2019-02-14T14:28:47.653Z,73.60
2019-02-14T14:31:18.169Z,73.80
2019-02-14T14:33:48.664Z,73.60
2019-02-14T14:36:19.258Z,74.00
2019-02-14T14:38:49.993Z,74.00
2019-02-14T14:41:20.666Z,74.80
2019-02-14T14:44:10.152Z,75.20
2019-02-14T14:47:00.121Z,75.70
2019-02-14T14:49:30.651Z,76.20
2019-02-14T14:52:01.433Z,76.80
2019-02-14T14:54:31.973Z,77.30
2019-02-14T14:57:02.660Z,77.90
2019-02-14T14:59:33.252Z,78.10
2019-02-14T15:02:04.038Z,78.30
2019-02-14T15:04:37.790Z,78.60
2019-02-14T15:07:08.578Z,78.80
2019-02-14T15:09:39.344Z,79.00
2019-02-14T15:12:10.275Z,79.20
2019-02-14T15:14:41.044Z,79.60
2019-02-14T15:17:11.819Z,80.00
2019-02-14T15:19:42.673Z,80.40
2019-02-14T15:22:13.275Z,81.10
2019-02-14T15:24:44.050Z,81.80
2019-02-14T15:27:14.973Z,82.10
2019-02-14T15:29:45.787Z,84.00
2019-02-14T15:32:16.464Z,83.80
2019-02-14T15:34:47.113Z,84.50
2019-02-14T15:37:18.031Z,85.20
2019-02-14T15:39:48.932Z,85.50
2019-02-14T15:42:19.993Z,86.40
2019-02-14T15:44:51.427Z,86.40
2019-02-14T15:47:21.909Z,87.00
2019-02-14T15:49:52.593Z,87.10
2019-02-14T15:52:23.352Z,87.80
2019-02-14T15:54:55.681Z,88.40
2019-02-14T15:57:26.443Z,89.30
2019-02-14T15:59:59.982Z,90.30
2019-02-14T16:02:31.088Z,90.70
2019-02-14T16:05:02.945Z,91.20
2019-02-14T16:07:33.676Z,91.30
2019-02-14T16:10:05.869Z,91.40
2019-02-14T16:12:37.093Z,91.30
2019-02-14T16:15:09.163Z,91.40
2019-02-14T16:17:40.293Z,91.50
2019-02-14T16:20:11.257Z,92.10
2019-02-14T16:22:43.640Z,91.90
2019-02-14T16:25:14.341Z,91.80
2019-02-14T16:27:48.104Z,91.30
2019-02-14T16:30:18.775Z,91.00
2019-02-14T16:32:49.964Z,90.70
2019-02-14T16:35:20.635Z,90.70
2019-02-14T16:37:51.641Z,90.60
2019-02-14T16:40:27.787Z,90.40
2019-02-14T16:42:55.280Z,90.40
2019-02-14T16:45:26.172Z,90.20
2019-02-14T16:47:56.910Z,90.00
2019-02-14T16:50:27.712Z,89.90
2019-02-14T16:52:58.344Z,89.80
2019-02-14T16:55:29.186Z,90.00
2019-02-14T16:57:59.764Z,90.00
2019-02-14T17:00:30.372Z,90.00
2019-02-14T17:03:01.134Z,90.00
2019-02-14T17:05:31.912Z,90.10
2019-02-14T17:08:02.590Z,90.10
2019-02-14T17:10:36.967Z,90.00
2019-02-14T17:13:05.753Z,90.00
2019-02-14T17:15:36.903Z,90.00
2019-02-14T17:18:07.420Z,90.00
2019-02-14T17:20:38.206Z,90.00
2019-02-14T17:23:09.131Z,90.00
2019-02-14T17:25:40.042Z,90.00
2019-02-14T17:28:10.756Z,90.00
2019-02-14T17:30:41.815Z,90.00
2019-02-14T17:33:12.471Z,89.90
2019-02-14T17:35:43.080Z,89.80
2019-02-14T17:38:13.745Z,89.50
2019-02-14T17:40:46.383Z,89.40
2019-02-14T17:43:16.988Z,89.30
2019-02-14T17:45:47.874Z,89.00
2019-02-14T17:48:18.801Z,88.50
2019-02-14T17:50:49.651Z,88.50
2019-02-14T17:53:20.234Z,88.60
2019-02-14T17:55:50.990Z,88.60
2019-02-14T17:58:21.620Z,88.40
2019-02-14T18:00:52.456Z,88.40
2019-02-14T18:03:23.146Z,88.40
2019-02-14T18:05:54.127Z,88.30
2019-02-14T18:08:24.964Z,88.00
2019-02-14T18:10:55.953Z,87.80
2019-02-14T18:13:27.352Z,88.30
2019-02-14T18:16:00.120Z,88.50
2019-02-14T18:18:30.972Z,88.60
2019-02-14T18:21:01.682Z,89.30
2019-02-14T18:23:32.553Z,88.60
2019-02-14T18:26:03.222Z,87.80
2019-02-14T18:28:33.994Z,87.20
2019-02-14T18:31:05.952Z,86.90
2019-02-14T18:33:36.804Z,87.00
2019-02-14T18:36:07.533Z,87.50
2019-02-14T18:38:38.296Z,87.20
2019-02-14T18:41:09.213Z,86.70
2019-02-14T18:43:39.944Z,86.30
2019-02-14T18:46:11.083Z,85.90
2019-02-14T18:48:41.893Z,85.90
2019-02-14T18:51:15.152Z,85.90
2019-02-14T18:53:45.996Z,86.00
2019-02-14T18:56:16.794Z,86.60
2019-02-14T18:58:47.515Z,86.70
2019-02-14T19:01:27.633Z,87.10
2019-02-14T19:03:58.454Z,87.50
2019-02-14T19:06:29.453Z,87.70
2019-02-14T19:09:00.394Z,88.10
2019-02-14T19:11:31.538Z,88.10
2019-02-14T19:14:02.343Z,88.20
2019-02-14T19:16:33.303Z,88.20
2019-02-14T19:19:04.234Z,88.10
2019-02-14T19:21:35.084Z,88.10
2019-02-14T19:24:06.173Z,88.00
2019-02-14T19:26:37.104Z,88.30
2019-02-14T19:29:08.019Z,88.10
2019-02-14T19:31:39.053Z,88.20
2019-02-14T19:34:09.903Z,88.30
2019-02-14T19:36:40.563Z,88.40
2019-02-14T19:39:11.417Z,89.10
2019-02-14T19:41:42.258Z,89.10
2019-02-14T19:44:13.113Z,89.00
2019-02-14T19:46:44.013Z,89.10
2019-02-14T19:49:15.153Z,88.90
2019-02-14T19:51:46.974Z,88.70
2019-02-14T19:54:17.894Z,89.30
2019-02-14T19:56:48.938Z,88.50
2019-02-14T19:59:19.814Z,88.40
2019-02-14T20:01:50.735Z,88.60
2019-02-14T20:04:21.695Z,88.80
2019-02-14T20:06:52.632Z,89.20
2019-02-14T20:09:23.652Z,89.70
2019-02-14T20:11:54.592Z,89.80
2019-02-14T20:14:25.450Z,90.50
2019-02-14T20:16:57.330Z,91.00
2019-02-14T20:19:28.675Z,91.30
2019-02-14T20:22:00.952Z,91.50
2019-02-14T20:24:31.576Z,91.90
2019-02-14T20:27:02.732Z,92.30
2019-02-14T20:29:33.653Z,92.40
2019-02-14T20:32:05.033Z,92.90
2019-02-14T20:34:37.527Z,93.20
2019-02-14T20:37:09.482Z,93.70
2019-02-14T20:39:40.563Z,93.80
2019-02-14T20:42:11.486Z,93.90
2019-02-14T20:44:42.384Z,93.90
2019-02-14T20:47:13.109Z,94.10
2019-02-14T20:49:44.056Z,94.30
2019-02-14T20:52:14.928Z,94.20
2019-02-14T20:54:45.534Z,94.30
2019-02-14T20:57:16.336Z,94.40
2019-02-14T20:59:47.254Z,94.50
2019-02-14T21:02:18.066Z,94.50
2019-02-14T21:04:49.407Z,94.60
2019-02-14T21:07:20.445Z,94.90
2019-02-14T21:09:51.686Z,95.00
2019-02-14T21:12:23.605Z,94.90
2019-02-14T21:14:55.054Z,95.20
2019-02-14T21:17:26.011Z,95.20
2019-02-14T21:19:57.195Z,95.40
2019-02-14T21:22:28.422Z,95.40
2019-02-14T21:24:59.538Z,95.50
2019-02-14T21:27:30.373Z,95.80
2019-02-14T21:30:01.073Z,95.70
2019-02-14T21:32:32.006Z,95.90
2019-02-14T21:35:02.867Z,96.00
2019-02-14T21:37:33.753Z,96.10
2019-02-14T21:40:05.145Z,96.20
2019-02-14T21:42:36.151Z,96.40
2019-02-14T21:45:08.487Z,96.50
2019-02-14T21:47:39.276Z,96.50
2019-02-14T21:50:10.815Z,96.50
2019-02-14T21:52:41.709Z,96.70
2019-02-14T21:55:12.526Z,96.70
2019-02-14T21:57:43.343Z,96.70
2019-02-14T22:00:16.620Z,96.70
2019-02-14T22:02:47.531Z,96.70
2019-02-14T22:05:23.965Z,96.70
2019-02-14T22:07:50.830Z,96.60
2019-02-14T22:10:21.486Z,96.70
2019-02-14T22:12:52.190Z,96.60
2019-02-14T22:15:22.761Z,96.60
2019-02-14T22:17:53.389Z,96.60
2019-02-14T22:20:24.232Z,96.60
2019-02-14T22:22:54.844Z,96.70
2019-02-14T22:25:25.693Z,96.50
2019-02-14T22:27:56.516Z,96.40
2019-02-14T22:30:27.347Z,96.40
2019-02-14T22:32:58.067Z,96.40
2019-02-14T22:35:28.846Z,96.40
2019-02-14T22:37:59.814Z,96.30
2019-02-14T22:40:30.427Z,96.30
2019-02-14T22:43:00.989Z,96.10
2019-02-14T22:45:31.546Z,96.10
2019-02-14T22:48:02.176Z,96.10
2019-02-14T22:50:32.926Z,96.30
2019-02-14T22:53:03.601Z,96.30
2019-02-14T22:55:34.277Z,96.30
2019-02-14T22:58:04.962Z,96.30
2019-02-14T23:00:42.764Z,96.30
2019-02-14T23:03:13.324Z,96.30
2019-02-14T23:05:44.761Z,96.30
2019-02-14T23:08:16.474Z,96.30
2019-02-14T23:10:47.005Z,96.40
2019-02-14T23:13:17.682Z,96.50
2019-02-14T23:15:48.676Z,96.50
2019-02-14T23:18:19.413Z,96.40
2019-02-14T23:20:50.985Z,96.40
2019-02-14T23:23:21.886Z,96.50
2019-02-14T23:25:52.466Z,96.50
2019-02-14T23:28:23.086Z,96.50
2019-02-14T23:30:53.993Z,96.40
2019-02-14T23:33:24.934Z,96.40
2019-02-14T23:35:55.772Z,96.80
2019-02-14T23:38:26.341Z,96.60
2019-02-14T23:40:57.043Z,96.60
2019-02-14T23:43:27.588Z,96.60
2019-02-14T23:45:58.162Z,96.50
2019-02-14T23:48:29.857Z,96.50
2019-02-14T23:51:00.672Z,96.50
2019-02-14T23:53:31.412Z,96.40
2019-02-14T23:56:02.064Z,96.50
2019-02-14T23:58:33.091Z,96.60
